Terminal Aerodrome Forecast
Issued by NWS

Home | Current Version | Previous Version | Graphics & Text | Print | Product List | Glossary On
Versions: 1 2 3 4 5 6 7 8 9 10 11 12 13 14 15 16
000
FTUS43 KPAH 011300 AAA
TAFCGI
TAF AMD
KCGI 011307Z 0113/0212 00000KT 3SM BR OVC002
     FM011345 00000KT 5SM BR BKN007
     FM011430 07003KT P6SM SCT060
     FM020800 03003KT 5SM BR FEW060 SCT100=

USA.gov is the U.S. government's official web portal to all federal, state and local government web resources and services.